createdAt,value
2023-04-17T00:00:53.620Z,13.96
2023-04-17T00:02:58.242Z,13.95
2023-04-17T00:05:05.638Z,13.96
2023-04-17T00:07:07.457Z,13.94
2023-04-17T00:09:10.243Z,13.95
2023-04-17T00:11:13.979Z,13.93
2023-04-17T00:13:24.190Z,13.92
2023-04-17T00:15:25.916Z,13.90
2023-04-17T00:17:27.676Z,13.92
2023-04-17T00:19:29.349Z,13.92
2023-04-17T00:21:34.298Z,13.93
2023-04-17T00:23:35.930Z,13.91
2023-04-17T00:25:37.477Z,13.91
2023-04-17T00:27:38.992Z,13.90
2023-04-17T00:29:40.754Z,13.91
2023-04-17T00:31:43.591Z,13.89
2023-04-17T00:33:46.599Z,13.88
2023-04-17T00:35:52.613Z,13.87
2023-04-17T00:37:54.373Z,13.88
2023-04-17T00:39:56.021Z,13.88
2023-04-17T00:42:00.710Z,13.86
2023-04-17T00:44:02.422Z,13.86
2023-04-17T00:46:05.696Z,13.84
2023-04-17T00:48:09.180Z,13.85
2023-04-17T00:50:13.350Z,13.84
2023-04-17T00:52:26.538Z,13.82
2023-04-17T00:54:31.846Z,13.82
2023-04-17T00:56:36.653Z,13.82
2023-04-17T00:58:38.231Z,13.81
2023-04-17T01:00:40.172Z,13.79
2023-04-17T01:02:41.855Z,13.80
2023-04-17T01:04:44.571Z,13.80
2023-04-17T01:06:52.298Z,13.80
2023-04-17T01:08:54.030Z,13.80
2023-04-17T01:10:58.303Z,13.79
2023-04-17T01:13:10.580Z,13.78
2023-04-17T01:15:21.793Z,13.80
2023-04-17T01:17:42.034Z,13.79
2023-04-17T01:19:43.763Z,13.77
2023-04-17T01:21:45.433Z,13.75
2023-04-17T01:23:52.236Z,13.76
2023-04-17T01:25:57.602Z,13.74
2023-04-17T01:28:02.315Z,13.75
2023-04-17T01:30:06.202Z,13.76
2023-04-17T01:32:14.457Z,13.76
2023-04-17T01:34:22.251Z,13.76
2023-04-17T01:36:24.036Z,13.77
2023-04-17T01:38:25.911Z,13.76
2023-04-17T01:40:27.630Z,13.76
2023-04-17T01:42:29.381Z,13.75
2023-04-17T01:44:31.148Z,13.75
2023-04-17T01:46:32.955Z,13.75
2023-04-17T01:48:34.978Z,13.74
2023-04-17T01:50:39.531Z,13.75
2023-04-17T01:52:41.064Z,13.74
2023-04-17T01:54:46.263Z,13.73
2023-04-17T01:56:47.838Z,13.73
2023-04-17T01:58:50.289Z,13.71
2023-04-17T02:00:56.433Z,13.71
2023-04-17T02:02:58.410Z,13.72
2023-04-17T02:05:00.354Z,13.72
2023-04-17T02:07:01.921Z,13.71
2023-04-17T02:09:03.971Z,13.71
2023-04-17T02:11:09.994Z,13.71
2023-04-17T02:13:11.571Z,13.69
2023-04-17T02:15:19.024Z,13.70
2023-04-17T02:17:20.806Z,13.69
2023-04-17T02:19:22.962Z,13.71
2023-04-17T02:21:27.402Z,13.70
2023-04-17T02:23:31.906Z,13.69
2023-04-17T02:25:34.297Z,13.69
2023-04-17T02:27:39.652Z,13.69
2023-04-17T02:29:42.468Z,13.69
2023-04-17T02:31:47.012Z,13.67
2023-04-17T02:33:48.837Z,13.68
2023-04-17T02:35:51.558Z,13.68
2023-04-17T02:37:58.313Z,13.68
2023-04-17T02:40:01.409Z,13.68
2023-04-17T02:42:03.206Z,13.67
2023-04-17T02:44:05.557Z,13.66
2023-04-17T02:46:07.751Z,13.67
2023-04-17T02:48:09.380Z,13.67
2023-04-17T02:50:16.904Z,13.66
2023-04-17T02:52:33.696Z,13.66
2023-04-17T02:54:36.186Z,13.64
2023-04-17T02:56:39.330Z,13.65
2023-04-17T02:58:44.507Z,13.64
2023-04-17T03:00:48.400Z,13.64
2023-04-17T03:02:52.867Z,13.64
2023-04-17T03:04:54.517Z,13.64
2023-04-17T03:06:56.363Z,13.64
2023-04-17T03:08:58.000Z,13.63
2023-04-17T03:11:12.446Z,13.63
2023-04-17T03:13:14.278Z,13.63
2023-04-17T03:15:16.083Z,13.62
2023-04-17T03:17:21.715Z,13.61
2023-04-17T03:19:23.542Z,13.62
2023-04-17T03:21:26.838Z,13.60
2023-04-17T03:23:31.440Z,13.60
2023-04-17T03:25:33.236Z,13.60
2023-04-17T03:27:39.999Z,13.60
2023-04-17T03:29:44.732Z,13.60
2023-04-17T03:31:49.551Z,13.59
2023-04-17T03:33:51.514Z,13.59
2023-04-17T03:35:59.419Z,13.59
2023-04-17T03:38:00.990Z,13.57
2023-04-17T03:40:02.509Z,13.57
2023-04-17T03:42:04.264Z,13.55
2023-04-17T03:44:06.032Z,13.56
2023-04-17T03:46:08.241Z,13.55
2023-04-17T03:48:20.238Z,13.55
2023-04-17T03:50:25.691Z,13.55
2023-04-17T03:52:31.783Z,13.54
2023-04-17T03:54:35.784Z,13.52
2023-04-17T03:56:39.722Z,13.50
2023-04-17T03:58:41.291Z,13.51
2023-04-17T04:00:46.479Z,13.50
2023-04-17T04:02:48.674Z,13.48
2023-04-17T04:04:54.847Z,13.49
2023-04-17T04:06:58.038Z,13.48
2023-04-17T04:09:01.222Z,13.45
2023-04-17T04:11:03.450Z,13.45
2023-04-17T04:13:12.544Z,13.44
2023-04-17T04:15:17.056Z,13.45
2023-04-17T04:17:21.302Z,13.43
2023-04-17T04:19:23.145Z,13.43
2023-04-17T04:21:24.805Z,13.42
2023-04-17T04:23:28.117Z,13.43
2023-04-17T04:25:34.081Z,13.42
2023-04-17T04:28:06.372Z,13.41
2023-04-17T04:30:12.310Z,13.41
2023-04-17T04:32:17.165Z,13.43
2023-04-17T04:34:24.838Z,13.40
2023-04-17T04:36:30.110Z,13.41
2023-04-17T04:38:45.785Z,13.40
2023-04-17T04:41:01.654Z,13.41
2023-04-17T04:43:04.329Z,13.40
2023-04-17T04:45:12.738Z,13.40
2023-04-17T04:47:14.921Z,13.41
2023-04-17T04:49:18.303Z,13.41
2023-04-17T04:51:29.174Z,13.42
2023-04-17T04:53:31.423Z,13.40
2023-04-17T04:55:33.823Z,13.40
2023-04-17T04:57:38.338Z,13.39
2023-04-17T04:59:41.191Z,13.39
2023-04-17T05:02:09.016Z,13.39
2023-04-17T05:04:11.050Z,13.39
2023-04-17T05:06:16.991Z,13.41
2023-04-17T05:08:24.342Z,13.40
2023-04-17T05:10:35.266Z,13.40
2023-04-17T05:12:39.180Z,13.42
2023-04-17T05:14:44.908Z,13.42
2023-04-17T05:16:47.508Z,13.41
2023-04-17T05:18:49.060Z,13.43
2023-04-17T05:20:57.444Z,13.41
2023-04-17T05:23:01.058Z,13.41
2023-04-17T05:25:02.664Z,13.42
2023-04-17T05:27:04.311Z,13.42
2023-04-17T05:29:06.206Z,13.43
2023-04-17T05:31:09.409Z,13.43
2023-04-17T05:33:21.426Z,13.42
2023-04-17T05:35:27.162Z,13.44
2023-04-17T05:37:29.244Z,13.44
2023-04-17T05:39:31.128Z,13.45
2023-04-17T05:41:33.273Z,13.44
2023-04-17T05:43:35.923Z,13.45
2023-04-17T05:45:37.738Z,13.46
2023-04-17T05:47:42.912Z,13.41
2023-04-17T05:49:44.655Z,13.40
2023-04-17T05:51:47.432Z,13.42
2023-04-17T05:53:51.462Z,13.43
2023-04-17T05:55:53.032Z,13.45
2023-04-17T05:57:56.233Z,13.48
2023-04-17T05:59:59.624Z,13.48
2023-04-17T06:02:04.985Z,13.48
2023-04-17T06:04:08.713Z,13.49
2023-04-17T06:06:10.797Z,13.50
2023-04-17T06:08:17.524Z,13.50
2023-04-17T06:10:19.506Z,13.50
2023-04-17T06:12:28.529Z,13.47
2023-04-17T06:14:31.116Z,13.48
2023-04-17T06:16:33.780Z,13.50
2023-04-17T06:18:38.654Z,13.49
2023-04-17T06:20:43.999Z,13.51
2023-04-17T06:22:46.868Z,13.49
2023-04-17T06:24:48.614Z,13.51
2023-04-17T06:26:56.589Z,13.50
2023-04-17T06:28:58.117Z,13.46
2023-04-17T06:31:01.292Z,13.43
2023-04-17T06:33:02.966Z,13.43
2023-04-17T06:35:06.689Z,13.40
2023-04-17T06:37:22.013Z,13.43
2023-04-17T06:39:23.523Z,13.48
2023-04-17T06:41:26.006Z,13.48
2023-04-17T06:43:28.701Z,13.52
2023-04-17T06:45:32.305Z,13.53
2023-04-17T06:47:34.962Z,13.53
2023-04-17T06:49:37.460Z,13.54
2023-04-17T06:51:45.722Z,13.54
2023-04-17T06:53:49.986Z,13.53
2023-04-17T06:55:51.763Z,13.53
2023-04-17T06:57:56.306Z,13.57
2023-04-17T07:00:03.809Z,13.59
2023-04-17T07:02:05.480Z,13.59
2023-04-17T07:04:10.873Z,13.58
2023-04-17T07:06:12.744Z,13.60
2023-04-17T07:08:15.891Z,13.63
2023-04-17T07:10:19.438Z,13.66
2023-04-17T07:12:23.465Z,13.70
2023-04-17T07:14:25.094Z,13.69
2023-04-17T07:16:26.687Z,13.69
2023-04-17T07:18:32.592Z,13.70
2023-04-17T07:20:34.095Z,13.74
2023-04-17T07:22:38.626Z,13.77
2023-04-17T07:24:42.871Z,13.78
2023-04-17T07:26:45.418Z,13.81
2023-04-17T07:28:46.995Z,13.84
2023-04-17T07:30:48.737Z,13.89
2023-04-17T07:32:50.262Z,13.91
2023-04-17T07:34:52.128Z,13.95
2023-04-17T07:36:53.860Z,13.96
2023-04-17T07:39:04.340Z,13.99
2023-04-17T07:41:05.976Z,13.99
2023-04-17T07:43:10.513Z,14.03
2023-04-17T07:45:11.962Z,14.07
2023-04-17T07:47:19.504Z,14.10
2023-04-17T07:49:22.658Z,14.13
2023-04-17T07:51:24.349Z,14.16
2023-04-17T07:53:28.528Z,14.19
2023-04-17T07:55:30.148Z,14.23
2023-04-17T07:57:32.954Z,14.24
2023-04-17T07:59:45.672Z,14.28
2023-04-17T08:01:47.274Z,14.30
2023-04-17T08:03:49.485Z,14.32
2023-04-17T08:05:54.293Z,14.34
2023-04-17T08:07:56.170Z,14.39
2023-04-17T08:09:57.804Z,14.44
2023-04-17T08:11:59.401Z,14.46
2023-04-17T08:14:00.952Z,14.48
2023-04-17T08:16:05.773Z,14.49
2023-04-17T08:18:09.809Z,14.53
2023-04-17T08:20:11.707Z,14.54
2023-04-17T08:22:14.108Z,14.58
2023-04-17T08:24:19.526Z,14.58
2023-04-17T08:26:23.519Z,14.60
2023-04-17T08:28:25.215Z,14.60
2023-04-17T08:30:26.881Z,14.62
2023-04-17T08:32:28.382Z,14.63
2023-04-17T08:34:31.552Z,14.66
2023-04-17T08:36:36.051Z,14.68
2023-04-17T08:38:37.570Z,14.69
2023-04-17T08:40:42.082Z,14.71
2023-04-17T08:42:44.008Z,14.73
2023-04-17T08:44:45.961Z,14.75
2023-04-17T08:46:49.571Z,14.73
2023-04-17T08:48:52.287Z,14.76
2023-04-17T08:50:56.820Z,14.77
2023-04-17T08:52:58.326Z,14.77
2023-04-17T08:55:01.792Z,14.76
2023-04-17T08:57:04.504Z,14.75
2023-04-17T08:59:06.244Z,14.75
2023-04-17T09:01:13.195Z,14.75
2023-04-17T09:03:15.791Z,14.77
2023-04-17T09:05:22.649Z,14.77
2023-04-17T09:07:34.940Z,14.77
2023-04-17T09:09:47.874Z,14.77
2023-04-17T09:12:10.296Z,14.75
2023-04-17T09:14:30.464Z,14.77
2023-04-17T09:16:34.774Z,14.79
2023-04-17T09:18:38.072Z,14.81
2023-04-17T09:20:49.791Z,14.82
2023-04-17T09:23:02.597Z,14.85
2023-04-17T09:25:05.199Z,14.91
2023-04-17T09:27:24.331Z,14.93
2023-04-17T09:29:27.057Z,15.00
2023-04-17T09:31:30.565Z,15.04
2023-04-17T09:33:35.107Z,15.12
2023-04-17T09:35:40.668Z,15.15
2023-04-17T09:37:56.183Z,15.21
2023-04-17T09:40:04.442Z,15.28
2023-04-17T09:42:10.414Z,15.35
2023-04-17T09:44:19.888Z,15.43
2023-04-17T09:46:46.023Z,15.46
2023-04-17T09:48:48.130Z,15.56
2023-04-17T09:50:51.378Z,15.65
2023-04-17T09:53:06.720Z,15.75
2023-04-17T09:55:10.464Z,15.85
2023-04-17T09:57:16.776Z,15.95
2023-04-17T09:59:19.045Z,16.07
2023-04-17T10:01:20.740Z,16.18
2023-04-17T10:03:25.899Z,16.27
2023-04-17T10:05:32.134Z,16.35
2023-04-17T10:07:35.908Z,16.48
2023-04-17T10:09:39.830Z,16.59
2023-04-17T10:11:46.953Z,16.72
2023-04-17T10:13:56.787Z,16.84
2023-04-17T10:15:58.804Z,16.95
2023-04-17T10:18:21.272Z,17.08
2023-04-17T10:20:25.617Z,17.21
2023-04-17T10:22:27.882Z,17.31
2023-04-17T10:24:29.479Z,17.39
2023-04-17T10:26:34.499Z,17.48
2023-04-17T10:28:49.867Z,17.55
2023-04-17T10:30:55.810Z,17.66
2023-04-17T10:33:41.480Z,17.72
2023-04-17T10:35:46.066Z,17.78
2023-04-17T10:37:50.292Z,17.85
2023-04-17T10:39:59.101Z,17.92
2023-04-17T10:42:05.284Z,17.99
2023-04-17T10:44:06.780Z,18.04
2023-04-17T10:46:15.103Z,18.13
2023-04-17T10:48:45.887Z,18.19
2023-04-17T10:50:47.531Z,18.28
2023-04-17T10:52:48.991Z,18.32
2023-04-17T10:55:09.701Z,18.36
2023-04-17T10:57:11.803Z,18.44
2023-04-17T10:59:16.338Z,18.49
2023-04-17T11:01:18.113Z,18.53
2023-04-17T11:03:24.150Z,18.57
2023-04-17T11:05:28.590Z,18.64
2023-04-17T11:07:35.825Z,18.67
2023-04-17T11:09:38.392Z,18.71
2023-04-17T11:11:45.865Z,18.73
2023-04-17T11:13:48.819Z,18.75
2023-04-17T11:15:50.945Z,18.73
2023-04-17T11:17:56.333Z,18.73
2023-04-17T11:19:58.213Z,18.73
2023-04-17T11:22:02.663Z,18.74
2023-04-17T11:24:05.372Z,18.74
2023-04-17T11:26:07.973Z,18.73
2023-04-17T11:28:09.776Z,18.73
2023-04-17T11:30:12.404Z,18.74
2023-04-17T11:32:14.809Z,18.76
2023-04-17T11:34:17.078Z,18.77
2023-04-17T11:36:19.142Z,18.80
2023-04-17T11:38:23.145Z,18.80
2023-04-17T11:40:26.335Z,18.79
2023-04-17T11:42:28.599Z,18.79
2023-04-17T11:44:30.884Z,18.78
2023-04-17T11:46:32.670Z,18.77
2023-04-17T11:48:35.010Z,18.77
2023-04-17T11:50:37.250Z,18.75
2023-04-17T11:52:39.209Z,18.76
2023-04-17T11:54:41.886Z,18.75
2023-04-17T11:56:58.499Z,18.69
2023-04-17T11:59:02.183Z,18.70
2023-04-17T12:01:06.721Z,18.68
2023-04-17T12:03:37.192Z,18.65
2023-04-17T12:05:39.158Z,18.64
2023-04-17T12:07:41.255Z,18.63
2023-04-17T12:09:43.421Z,18.64
2023-04-17T12:11:46.020Z,18.64
2023-04-17T12:13:48.166Z,18.64
2023-04-17T12:15:51.100Z,18.64
2023-04-17T12:17:53.123Z,18.61
2023-04-17T12:19:55.060Z,18.63
2023-04-17T12:21:57.676Z,18.65
2023-04-17T12:24:04.920Z,18.66
2023-04-17T12:26:27.217Z,18.66
2023-04-17T12:28:32.009Z,18.66
2023-04-17T12:30:42.744Z,18.68
2023-04-17T12:32:56.368Z,18.68
2023-04-17T12:35:02.633Z,18.70
2023-04-17T12:37:04.273Z,18.72
2023-04-17T12:39:06.034Z,18.73
2023-04-17T12:41:07.910Z,18.74
2023-04-17T12:43:13.208Z,18.76
2023-04-17T12:45:15.827Z,18.75
2023-04-17T12:47:17.350Z,18.75
2023-04-17T12:49:20.518Z,18.74
2023-04-17T12:51:22.086Z,18.74
2023-04-17T12:53:23.703Z,18.75
2023-04-17T12:55:29.913Z,18.75
2023-04-17T12:57:31.446Z,18.73
2023-04-17T12:59:33.066Z,18.70
2023-04-17T13:01:37.502Z,18.68
2023-04-17T13:03:39.324Z,18.66
2023-04-17T13:05:41.037Z,18.63
2023-04-17T13:07:42.687Z,18.61
2023-04-17T13:09:44.486Z,18.58
2023-04-17T13:11:45.975Z,18.57
2023-04-17T13:13:47.545Z,18.56
2023-04-17T13:15:49.461Z,18.56
2023-04-17T13:17:51.118Z,18.57
2023-04-17T13:19:52.747Z,18.57
2023-04-17T13:21:54.334Z,18.52
2023-04-17T13:23:55.787Z,18.49
2023-04-17T13:25:59.480Z,18.47
2023-04-17T13:28:01.249Z,18.42
2023-04-17T13:30:06.829Z,18.37
2023-04-17T13:32:09.740Z,18.34
2023-04-17T13:34:11.686Z,18.28
2023-04-17T13:36:13.251Z,18.24
2023-04-17T13:38:14.970Z,18.20
2023-04-17T13:40:17.423Z,18.16
2023-04-17T13:42:19.137Z,18.10
2023-04-17T13:44:24.494Z,18.05
2023-04-17T13:46:28.469Z,18.00
2023-04-17T13:48:30.048Z,17.95
2023-04-17T13:50:31.624Z,17.93
2023-04-17T13:52:33.067Z,17.90
2023-04-17T13:54:37.315Z,17.90
2023-04-17T13:56:38.827Z,17.88
2023-04-17T13:58:41.273Z,17.89
2023-04-17T14:00:43.219Z,17.89
2023-04-17T14:02:44.830Z,17.87
2023-04-17T14:04:46.851Z,17.84
2023-04-17T14:06:51.430Z,17.81
2023-04-17T14:08:55.390Z,17.81
2023-04-17T14:10:58.989Z,17.81
2023-04-17T14:13:01.019Z,17.76
2023-04-17T14:15:02.628Z,17.75
2023-04-17T14:17:10.240Z,17.71
2023-04-17T14:19:15.274Z,17.66
2023-04-17T14:21:17.645Z,17.60
2023-04-17T14:23:21.897Z,17.56
2023-04-17T14:25:23.380Z,17.56
2023-04-17T14:27:24.965Z,17.54
2023-04-17T14:29:26.536Z,17.54
2023-04-17T14:31:28.092Z,17.52
2023-04-17T14:33:29.611Z,17.52
2023-04-17T14:35:32.888Z,17.52
2023-04-17T14:37:34.542Z,17.52
2023-04-17T14:39:36.013Z,17.46
2023-04-17T14:41:37.567Z,17.39
2023-04-17T14:43:39.102Z,17.36
2023-04-17T14:45:40.895Z,17.32
2023-04-17T14:47:44.009Z,17.29
2023-04-17T14:49:48.373Z,17.27
2023-04-17T14:51:49.823Z,17.24
2023-04-17T14:53:52.995Z,17.21
2023-04-17T14:55:54.801Z,17.15
2023-04-17T14:57:56.468Z,17.10
2023-04-17T14:59:57.957Z,17.06
2023-04-17T15:01:59.695Z,17.05
2023-04-17T15:04:01.984Z,17.06
2023-04-17T15:06:03.985Z,17.04
2023-04-17T15:08:05.616Z,17.02
2023-04-17T15:10:07.498Z,16.97
2023-04-17T15:12:08.994Z,16.92
2023-04-17T15:14:12.962Z,16.91
2023-04-17T15:16:14.697Z,16.88
2023-04-17T15:18:16.384Z,16.83
2023-04-17T15:20:18.133Z,16.84
2023-04-17T15:22:19.663Z,16.82
2023-04-17T15:24:21.111Z,16.80
2023-04-17T15:26:23.437Z,16.75
2023-04-17T15:28:25.632Z,16.75
2023-04-17T15:30:27.127Z,16.74
2023-04-17T15:32:28.706Z,16.71
2023-04-17T15:34:30.330Z,16.68
2023-04-17T15:36:31.798Z,16.66
2023-04-17T15:38:33.619Z,16.64
2023-04-17T15:40:36.196Z,16.64
2023-04-17T15:42:37.788Z,16.62
2023-04-17T15:44:39.428Z,16.61
2023-04-17T15:46:41.140Z,16.61
2023-04-17T15:48:42.679Z,16.58
2023-04-17T15:50:46.505Z,16.58
2023-04-17T15:52:48.194Z,16.58
2023-04-17T15:54:50.089Z,16.60
2023-04-17T15:56:51.557Z,16.61
2023-04-17T15:58:52.998Z,16.61
2023-04-17T16:00:54.666Z,16.65
2023-04-17T16:02:56.365Z,16.66
2023-04-17T16:04:57.871Z,16.68
2023-04-17T16:06:59.370Z,16.69
2023-04-17T16:09:01.198Z,16.70
2023-04-17T16:11:08.633Z,16.70
2023-04-17T16:13:10.137Z,16.66
2023-04-17T16:15:13.329Z,16.67
2023-04-17T16:17:14.888Z,16.69
2023-04-17T16:19:18.287Z,16.68
2023-04-17T16:21:20.045Z,16.67
2023-04-17T16:23:22.102Z,16.68
2023-04-17T16:25:27.896Z,16.70
2023-04-17T16:27:30.327Z,16.72
2023-04-17T16:29:31.860Z,16.75
2023-04-17T16:31:33.437Z,16.78
2023-04-17T16:33:35.186Z,16.82
2023-04-17T16:35:36.653Z,16.85
2023-04-17T16:37:40.532Z,16.89
2023-04-17T16:39:42.215Z,16.91
2023-04-17T16:41:43.771Z,16.94
2023-04-17T16:43:47.520Z,16.97
2023-04-17T16:45:49.149Z,17.00
2023-04-17T16:47:50.890Z,17.01
2023-04-17T16:49:52.401Z,17.01
2023-04-17T16:51:56.375Z,17.00
2023-04-17T16:53:57.927Z,16.99
2023-04-17T16:55:59.513Z,16.99
2023-04-17T16:58:04.143Z,16.98
2023-04-17T17:00:07.724Z,16.96
2023-04-17T17:02:09.383Z,16.92
2023-04-17T17:04:10.905Z,16.88
2023-04-17T17:06:12.670Z,16.84
2023-04-17T17:08:14.476Z,16.80
2023-04-17T17:10:16.028Z,16.76
2023-04-17T17:12:17.679Z,16.72
2023-04-17T17:14:26.625Z,16.70
2023-04-17T17:16:28.191Z,16.68
2023-04-17T17:18:30.004Z,16.66
2023-04-17T17:20:31.539Z,16.65
2023-04-17T17:22:32.971Z,16.62
2023-04-17T17:24:34.688Z,16.61
2023-04-17T17:26:36.975Z,16.60
2023-04-17T17:28:42.967Z,16.59
2023-04-17T17:30:44.398Z,16.58
2023-04-17T17:32:45.886Z,16.56
2023-04-17T17:34:47.555Z,16.52
2023-04-17T17:36:49.696Z,16.51
2023-04-17T17:38:55.586Z,16.47
2023-04-17T17:40:57.526Z,16.44
2023-04-17T17:42:59.320Z,16.41
2023-04-17T17:45:01.184Z,16.37
2023-04-17T17:47:03.843Z,16.33
2023-04-17T17:49:06.669Z,16.29
2023-04-17T17:51:08.255Z,16.24
2023-04-17T17:53:10.773Z,16.19
2023-04-17T17:55:16.112Z,16.13
2023-04-17T17:57:17.676Z,16.07
2023-04-17T17:59:19.209Z,16.03
2023-04-17T18:01:22.899Z,15.99
2023-04-17T18:03:24.976Z,15.96
2023-04-17T18:05:27.223Z,15.93
2023-04-17T18:07:28.756Z,15.92
2023-04-17T18:09:30.302Z,15.89
2023-04-17T18:11:31.786Z,15.89
2023-04-17T18:13:34.434Z,15.86
2023-04-17T18:15:36.673Z,15.84
2023-04-17T18:17:38.236Z,15.83
2023-04-17T18:19:41.779Z,15.82
2023-04-17T18:21:44.614Z,15.80
2023-04-17T18:23:51.148Z,15.81
2023-04-17T18:26:01.092Z,15.80
2023-04-17T18:28:03.900Z,15.78
2023-04-17T18:30:09.776Z,15.77
2023-04-17T18:32:11.282Z,15.75
2023-04-17T18:34:12.939Z,15.74
2023-04-17T18:36:14.848Z,15.74
2023-04-17T18:38:16.908Z,15.75
2023-04-17T18:40:18.726Z,15.75
2023-04-17T18:42:22.875Z,15.74
2023-04-17T18:44:24.622Z,15.71
2023-04-17T18:46:27.081Z,15.72
2023-04-17T18:48:28.694Z,15.72
2023-04-17T18:50:30.901Z,15.74
2023-04-17T18:52:43.221Z,15.74
2023-04-17T18:54:47.828Z,15.74
2023-04-17T18:56:49.550Z,15.75
2023-04-17T18:58:51.336Z,15.76
2023-04-17T19:00:52.826Z,15.76
2023-04-17T19:02:54.655Z,15.77
2023-04-17T19:04:56.677Z,15.79
2023-04-17T19:06:58.594Z,15.81
2023-04-17T19:09:00.293Z,15.81
2023-04-17T19:11:02.266Z,15.75
2023-04-17T19:13:09.615Z,15.71
2023-04-17T19:15:11.610Z,15.67
2023-04-17T19:17:15.910Z,15.61
2023-04-17T19:19:17.637Z,15.55
2023-04-17T19:21:19.286Z,15.49
2023-04-17T19:23:20.853Z,15.43
2023-04-17T19:25:22.495Z,15.41
2023-04-17T19:27:25.223Z,15.35
2023-04-17T19:29:28.531Z,15.28
2023-04-17T19:31:31.038Z,15.23
2023-04-17T19:33:33.686Z,15.16
2023-04-17T19:35:35.351Z,15.11
2023-04-17T19:37:37.137Z,15.06
2023-04-17T19:39:38.723Z,15.03
2023-04-17T19:41:40.242Z,14.99
2023-04-17T19:43:44.510Z,14.95
2023-04-17T19:45:47.028Z,14.89
2023-04-17T19:47:54.881Z,14.82
2023-04-17T19:49:56.640Z,14.78
2023-04-17T19:51:59.176Z,14.73
2023-04-17T19:54:01.187Z,14.70
2023-04-17T19:56:04.801Z,14.67
2023-04-17T19:58:07.454Z,14.63
2023-04-17T20:00:09.962Z,14.60
2023-04-17T20:02:17.748Z,14.59
2023-04-17T20:04:19.372Z,14.56
2023-04-17T20:06:22.656Z,14.52
2023-04-17T20:08:25.188Z,14.49
2023-04-17T20:10:29.705Z,14.46
2023-04-17T20:12:31.297Z,14.44
2023-04-17T20:14:33.333Z,14.42
2023-04-17T20:16:36.028Z,14.39
2023-04-17T20:18:38.022Z,14.35
2023-04-17T20:20:40.016Z,14.32
2023-04-17T20:22:41.544Z,14.28
2023-04-17T20:24:45.518Z,14.27
2023-04-17T20:26:47.191Z,14.23
2023-04-17T20:28:49.257Z,14.19
2023-04-17T20:30:53.643Z,14.16
2023-04-17T20:32:55.538Z,14.13
2023-04-17T20:35:00.177Z,14.06
2023-04-17T20:37:04.709Z,14.04
2023-04-17T20:39:07.249Z,14.01
2023-04-17T20:41:20.929Z,14.00
2023-04-17T20:43:22.613Z,13.95
2023-04-17T20:45:24.356Z,13.92
2023-04-17T20:47:26.921Z,13.89
2023-04-17T20:49:28.616Z,13.87
2023-04-17T20:51:30.348Z,13.84
2023-04-17T20:53:32.715Z,13.81
2023-04-17T20:55:36.862Z,13.79
2023-04-17T20:57:38.372Z,13.79
2023-04-17T20:59:39.822Z,13.78
2023-04-17T21:01:43.931Z,13.75
2023-04-17T21:03:45.744Z,13.74
2023-04-17T21:05:47.313Z,13.73
2023-04-17T21:07:50.873Z,13.71
2023-04-17T21:09:53.152Z,13.67
2023-04-17T21:11:55.108Z,13.64
2023-04-17T21:13:58.857Z,13.62
2023-04-17T21:16:00.325Z,13.58
2023-04-17T21:18:01.878Z,13.57
2023-04-17T21:20:04.917Z,13.53
2023-04-17T21:22:06.454Z,13.50
2023-04-17T21:24:08.911Z,13.47
2023-04-17T21:26:10.365Z,13.44
2023-04-17T21:28:11.924Z,13.42
2023-04-17T21:30:13.504Z,13.38
2023-04-17T21:32:19.228Z,13.36
2023-04-17T21:34:21.221Z,13.34
2023-04-17T21:36:23.099Z,13.30
2023-04-17T21:38:24.636Z,13.28
2023-04-17T21:40:29.133Z,13.27
2023-04-17T21:42:34.960Z,13.24
2023-04-17T21:44:36.460Z,13.22
2023-04-17T21:46:38.354Z,13.19
2023-04-17T21:48:39.926Z,13.16
2023-04-17T21:50:41.707Z,13.13
2023-04-17T21:52:44.393Z,13.11
2023-04-17T21:54:46.105Z,13.09
2023-04-17T21:56:47.796Z,13.05
2023-04-17T21:58:50.006Z,13.02
2023-04-17T22:00:52.818Z,12.98
2023-04-17T22:02:54.533Z,12.96
2023-04-17T22:04:56.197Z,12.94
2023-04-17T22:07:01.740Z,12.90
2023-04-17T22:09:04.717Z,12.88
2023-04-17T22:11:06.260Z,12.87
2023-04-17T22:13:07.823Z,12.83
2023-04-17T22:15:09.640Z,12.80
2023-04-17T22:17:11.084Z,12.77
2023-04-17T22:19:12.558Z,12.74
2023-04-17T22:21:14.446Z,12.71
2023-04-17T22:23:15.921Z,12.69
2023-04-17T22:25:42.785Z,12.65
2023-04-17T22:27:44.321Z,12.64
2023-04-17T22:29:48.422Z,12.62
2023-04-17T22:31:52.878Z,12.61
2023-04-17T22:33:54.328Z,12.58
2023-04-17T22:35:55.883Z,12.54
2023-04-17T22:37:59.879Z,12.53
2023-04-17T22:40:01.618Z,12.51
2023-04-17T22:42:03.152Z,12.48
2023-04-17T22:44:10.846Z,12.44
2023-04-17T22:46:15.135Z,12.42
2023-04-17T22:48:17.760Z,12.40
2023-04-17T22:50:19.331Z,12.37
2023-04-17T22:52:21.804Z,12.34
2023-04-17T22:54:23.509Z,12.31
2023-04-17T22:56:24.995Z,12.28
2023-04-17T22:58:28.805Z,12.28
2023-04-17T23:00:31.595Z,12.28
2023-04-17T23:02:33.270Z,12.28
2023-04-17T23:04:34.866Z,12.26
2023-04-17T23:06:36.352Z,12.27
2023-04-17T23:08:40.815Z,12.23
2023-04-17T23:10:44.216Z,12.22
2023-04-17T23:12:45.910Z,12.20
2023-04-17T23:14:48.468Z,12.19
2023-04-17T23:16:55.620Z,12.17
2023-04-17T23:18:57.974Z,12.16
2023-04-17T23:20:59.477Z,12.15
2023-04-17T23:23:00.998Z,12.12
2023-04-17T23:25:03.056Z,12.12
2023-04-17T23:27:04.599Z,12.08
2023-04-17T23:29:06.035Z,12.07
2023-04-17T23:31:07.616Z,12.05
2023-04-17T23:33:09.745Z,12.05
2023-04-17T23:35:11.265Z,12.00
2023-04-17T23:37:12.727Z,11.97
2023-04-17T23:39:14.177Z,11.96
2023-04-17T23:41:15.865Z,11.94
2023-04-17T23:43:17.427Z,11.93
2023-04-17T23:45:20.530Z,11.89
2023-04-17T23:47:22.091Z,11.88
2023-04-17T23:49:23.866Z,11.85
2023-04-17T23:51:26.200Z,11.85
2023-04-17T23:53:27.663Z,11.81
2023-04-17T23:55:29.193Z,11.79
2023-04-17T23:57:30.853Z,11.77
2023-04-17T23:59:32.264Z,11.75
